Time;durP1;ratioP1;P1;durP2;ratioP2;P2;SDS_P1;SDS_P2;PMS_P1;PMS_P2;Temp;Humidity;BMP_temperature;BMP_pressure;BME280_temperature;BME280_humidity;BME280_pressure;Samples;Min_cycle;Max_cycle;Signal;HPM_P1;HPM_P2
2021/08/09 00:09:30;;;;;;;13.07;3.67;;;12.00;99.90;;;;;;5967257;24;20020;-94
2021/08/09 00:12:00;;;;;;;12.30;3.45;;;12.00;99.90;;;;;;5944189;24;20034;-94
2021/08/09 00:14:38;;;;;;;11.45;3.60;;;12.00;99.90;;;;;;5948369;24;20032;-94
2021/08/09 00:17:14;;;;;;;7.38;3.33;;;12.00;99.90;;;;;;5947055;24;20012;-94
2021/08/09 00:19:55;;;;;;;13.88;3.42;;;12.00;99.90;;;;;;5945092;24;20011;-94
2021/08/09 00:22:21;;;;;;;9.93;2.80;;;12.00;99.90;;;;;;5935356;24;20012;-95
2021/08/09 00:25:05;;;;;;;;;;;;;;;;;;;;;
2021/08/09 00:28:00;;;;;;;18.10;3.35;;;12.00;99.90;;;;;;6051833;23;20011;-94
2021/08/09 00:33:26;;;;;;;10.77;4.18;;;12.00;99.90;;;;;;6048402;23;20012;-95
2021/08/09 00:35:57;;;;;;;18.15;4.40;;;12.00;99.90;;;;;;6023486;23;20003;-94
2021/08/09 00:39:00;;;;;;;21.63;5.20;;;12.00;99.90;;;;;;6048451;23;20014;-95
2021/08/09 00:41:49;;;;;;;15.77;4.60;;;12.00;99.90;;;;;;6269727;22;19999;-95
2021/08/09 00:45:21;;;;;;;;;;;;;;;;;;;;;
2021/08/09 00:48:27;;;;;;;16.65;3.67;;;12.00;99.90;;;;;;6287239;22;20003;-95
2021/08/09 01:09:27;;;;;;;;;;;;;;;;;;;;;
2021/08/09 01:46:17;;;;;;;;;;;;;;;;;;;;;
2021/08/09 01:52:23;;;;;;;;;;;;;;;;;;;;;
2021/08/09 02:14:01;;;;;;;12.57;4.47;;;11.70;99.90;;;;;;6166521;23;20392;-94
2021/08/09 02:24:59;;;;;;;;;;;;;;;;;;;;;
2021/08/09 02:27:50;;;;;;;9.82;3.60;;;11.60;99.90;;;;;;6036638;23;20078;-95
2021/08/09 02:31:08;;;;;;;18.23;3.60;;;11.60;99.90;;;;;;6015123;23;20030;-95
2021/08/09 02:34:21;;;;;;;17.33;3.53;;;11.60;99.90;;;;;;5925770;24;20066;-95
2021/08/09 03:09:45;;;;;;;7.22;2.88;;;11.60;99.90;;;;;;5818387;24;20046;-95
2021/08/09 03:13:02;;;;;;;;;;;;;;;;;;;;;
2021/08/09 03:19:17;;;;;;;12.48;4.28;;;11.60;99.90;;;;;;6009919;23;20019;-95
2021/08/09 03:42:53;;;;;;;13.55;4.18;;;11.40;99.90;;;;;;5885016;24;20705;-94
2021/08/09 03:45:20;;;;;;;11.65;3.90;;;11.40;99.90;;;;;;5859645;24;20100;-94
2021/08/09 03:47:47;;;;;;;11.02;4.80;;;11.40;99.90;;;;;;5861308;24;20048;-94
2021/08/09 03:50:19;;;;;;;17.38;4.32;;;11.40;99.90;;;;;;5937369;24;20009;-95
2021/08/09 03:52:53;;;;;;;13.23;3.70;;;11.30;99.90;;;;;;5932260;24;20091;-93
2021/08/09 03:55:20;;;;;;;11.50;4.10;;;11.30;99.90;;;;;;5932936;24;20445;-95
2021/08/09 03:58:00;;;;;;;13.05;4.20;;;11.30;99.90;;;;;;5937601;23;20020;-95
2021/08/09 04:00:27;;;;;;;11.68;3.60;;;11.20;99.90;;;;;;6012135;23;20091;-94
2021/08/09 04:02:54;;;;;;;16.13;4.30;;;11.20;99.90;;;;;;6019196;23;20018;-94
2021/08/09 04:05:22;;;;;;;11.02;4.43;;;11.20;99.90;;;;;;6128536;23;20068;-95
2021/08/09 04:07:56;;;;;;;11.98;3.92;;;11.20;99.90;;;;;;6179437;23;20001;-94
2021/08/09 04:10:31;;;;;;;13.63;4.80;;;11.20;99.90;;;;;;6183868;23;19993;-95
2021/08/09 04:13:34;;;;;;;15.45;4.63;;;11.30;99.90;;;;;;6185893;23;20001;-94
2021/08/09 04:16:28;;;;;;;;;;;;;;;;;;;;;
2021/08/09 04:18:58;;;;;;;6.45;4.30;;;11.30;99.90;;;;;;6347263;22;20073;-94
2021/08/09 04:21:48;;;;;;;14.88;4.50;;;11.30;99.90;;;;;;6349445;22;20014;-94
2021/08/09 04:24:23;;;;;;;9.05;3.83;;;11.30;99.90;;;;;;6343877;22;20002;-95
2021/08/09 04:29:44;;;;;;;10.95;4.28;;;11.30;99.90;;;;;;6371008;22;20010;-94
2021/08/09 04:32:26;;;;;;;6.13;3.95;;;11.20;99.90;;;;;;6343722;22;20009;-94
2021/08/09 04:34:52;;;;;;;10.95;4.35;;;11.20;99.90;;;;;;6344340;22;20002;-96
2021/08/09 04:37:24;;;;;;;12.10;4.43;;;11.20;99.90;;;;;;6344578;22;20414;-96
2021/08/09 04:40:08;;;;;;;12.00;4.13;;;11.20;99.90;;;;;;6362343;22;20047;-96
2021/08/09 04:42:56;;;;;;;13.60;4.90;;;11.20;99.90;;;;;;6368589;22;20007;-95
2021/08/09 04:48:56;;;;;;;;;;;;;;;;;;;;;
2021/08/09 04:51:43;;;;;;;8.32;4.07;;;11.30;99.90;;;;;;6378075;22;20006;-94
2021/08/09 05:07:48;;;;;;;;;;;;;;;;;;;;;
2021/08/09 05:10:43;;;;;;;18.20;7.35;;;11.40;99.90;;;;;;6037996;23;20587;-95
2021/08/09 05:13:35;;;;;;;13.70;6.75;;;11.40;99.90;;;;;;6039256;23;20106;-96
2021/08/09 05:17:05;;;;;;;12.40;5.40;;;11.50;99.90;;;;;;6037757;23;20021;-95
2021/08/09 05:20:13;;;;;;;;;;;;;;;;;;;;;
2021/08/09 05:22:45;;;;;;;11.73;5.47;;;11.50;99.90;;;;;;6040690;23;20483;-95
2021/08/09 05:25:41;;;;;;;14.18;6.00;;;11.50;99.90;;;;;;6012789;23;20094;-96
2021/08/09 05:28:24;;;;;;;13.85;6.05;;;11.50;99.90;;;;;;6016565;23;20026;-95
2021/08/09 05:30:53;;;;;;;15.55;6.57;;;11.50;99.90;;;;;;6039596;23;20014;-95
2021/08/09 05:33:24;;;;;;;16.88;6.00;;;11.50;99.90;;;;;;6039147;23;20007;-95
2021/08/09 05:36:22;;;;;;;15.05;6.57;;;11.60;99.90;;;;;;6039225;23;20007;-96
2021/08/09 05:38:48;;;;;;;16.08;6.25;;;11.60;99.90;;;;;;6038333;23;20011;-95
2021/08/09 05:41:16;;;;;;;18.83;6.28;;;11.70;99.90;;;;;;6039839;23;20018;-94
2021/08/09 05:43:43;;;;;;;20.40;7.47;;;11.70;99.90;;;;;;6187308;22;19998;-95
2021/08/09 05:48:50;;;;;;;16.17;7.65;;;11.80;99.90;;;;;;6357601;22;20018;-94
2021/08/09 05:51:39;;;;;;;15.35;7.90;;;11.90;99.90;;;;;;6348055;22;20006;-95
2021/08/09 05:54:05;;;;;;;12.25;5.82;;;11.90;99.90;;;;;;6346182;22;19998;-92
2021/08/09 05:56:31;;;;;;;10.68;5.20;;;11.90;99.90;;;;;;6345204;22;20037;-93
2021/08/09 05:59:02;;;;;;;19.48;8.13;;;12.00;99.90;;;;;;6344532;22;20366;-93
2021/08/09 06:01:32;;;;;;;18.45;7.25;;;12.00;99.90;;;;;;6344542;22;20002;-92
2021/08/09 06:04:03;;;;;;;16.92;6.25;;;12.10;99.90;;;;;;6343681;22;20003;-92
2021/08/09 06:06:48;;;;;;;13.23;6.10;;;12.10;99.90;;;;;;6343802;22;20425;-94
2021/08/09 06:10:20;;;;;;;12.02;5.97;;;12.10;99.90;;;;;;6344005;22;20003;-93
2021/08/09 06:12:49;;;;;;;18.77;6.43;;;12.10;99.90;;;;;;6320502;22;20018;-91
2021/08/09 06:15:14;;;;;;;18.05;5.85;;;12.20;99.90;;;;;;6312066;22;20030;-93
2021/08/09 06:17:42;;;;;;;15.23;6.25;;;12.20;99.90;;;;;;6312788;22;20011;-93
2021/08/09 06:20:09;;;;;;;10.55;6.10;;;12.20;99.90;;;;;;6312352;22;20082;-95
2021/08/09 06:22:35;;;;;;;17.00;7.57;;;12.20;99.90;;;;;;6312625;22;20007;-94
2021/08/09 06:25:00;;;;;;;12.20;6.10;;;12.30;99.90;;;;;;6313360;22;20017;-93
2021/08/09 06:27:26;;;;;;;10.85;6.43;;;12.30;99.90;;;;;;6313029;22;20009;-94
2021/08/09 06:29:52;;;;;;;16.42;6.30;;;12.40;99.90;;;;;;6313058;22;20007;-94
2021/08/09 06:32:20;;;;;;;13.40;6.68;;;12.40;99.90;;;;;;6310048;22;20014;-94
2021/08/09 06:34:46;;;;;;;11.90;5.18;;;12.40;99.90;;;;;;6312128;22;20003;-93
2021/08/09 06:37:11;;;;;;;11.10;5.57;;;12.50;99.90;;;;;;6312118;22;20114;-94
2021/08/09 06:39:37;;;;;;;11.93;6.10;;;12.50;99.90;;;;;;6313505;22;20026;-93
2021/08/09 06:42:08;;;;;;;15.07;6.38;;;12.60;99.90;;;;;;6312088;22;20487;-94
2021/08/09 06:44:34;;;;;;;16.25;6.47;;;12.70;99.90;;;;;;6313127;22;19998;-94
2021/08/09 06:47:00;;;;;;;11.68;5.68;;;12.80;99.90;;;;;;6312318;22;20063;-91
2021/08/09 06:49:26;;;;;;;10.80;4.80;;;12.90;99.90;;;;;;6306951;22;20026;-91
2021/08/09 06:51:52;;;;;;;12.65;4.50;;;12.90;99.90;;;;;;6306508;22;20010;-94
2021/08/09 06:54:20;;;;;;;15.05;4.78;;;13.00;99.90;;;;;;6306235;22;20038;-94
2021/08/09 06:56:47;;;;;;;8.32;3.97;;;13.10;99.90;;;;;;6306383;22;20016;-93
2021/08/09 06:59:13;;;;;;;11.35;4.13;;;13.10;99.90;;;;;;6306523;22;20003;-92
2021/08/09 07:01:38;;;;;;;8.07;3.83;;;13.20;99.90;;;;;;6306189;22;20007;-95
2021/08/09 07:04:04;;;;;;;12.65;3.92;;;13.30;99.90;;;;;;6305935;22;20061;-93
2021/08/09 07:06:32;;;;;;;11.57;3.67;;;13.30;99.90;;;;;;6306107;22;20007;-94
2021/08/09 07:09:03;;;;;;;8.75;3.80;;;13.40;99.90;;;;;;6306453;22;20364;-95
2021/08/09 07:11:29;;;;;;;11.85;4.50;;;13.50;99.90;;;;;;6307371;22;20011;-93
2021/08/09 07:30:49;;;;;;;9.20;2.90;;;14.00;99.90;;;;;;6286107;22;20597;-95
2021/08/09 07:33:15;;;;;;;5.00;2.90;;;14.10;99.90;;;;;;6352656;22;20002;-95
2021/08/09 07:36:04;;;;;;;;;;;;;;;;;;;;;
2021/08/09 07:38:36;;;;;;;19.90;3.78;;;14.20;99.90;;;;;;6377927;22;20468;-95
2021/08/09 07:41:07;;;;;;;5.15;3.55;;;14.30;99.90;;;;;;6354356;22;19998;-93
2021/08/09 07:43:51;;;;;;;;;;;;;;;;;;;;;
2021/08/09 07:46:24;;;;;;;9.30;3.20;;;14.40;99.90;;;;;;6355243;22;20089;-92
2021/08/09 07:49:13;;;;;;;8.15;2.83;;;14.50;99.90;;;;;;6342043;22;20074;-96
2021/08/09 07:51:39;;;;;;;11.27;3.42;;;14.50;99.90;;;;;;6343805;22;20006;-93
2021/08/09 07:54:04;;;;;;;5.57;2.35;;;14.60;99.90;;;;;;6343202;22;20063;-91
2021/08/09 07:56:30;;;;;;;3.53;2.22;;;14.70;99.90;;;;;;6340587;22;20092;-91
2021/08/09 07:58:56;;;;;;;7.78;2.60;;;14.70;99.90;;;;;;6341195;22;20037;-93
2021/08/09 08:01:21;;;;;;;9.88;2.78;;;14.80;99.90;;;;;;6340626;22;20002;-94
2021/08/09 08:03:47;;;;;;;5.15;2.40;;;14.80;99.90;;;;;;6339974;22;20014;-93
2021/08/09 08:06:13;;;;;;;8.27;2.85;;;14.90;99.90;;;;;;6340620;22;20006;-91
2021/08/09 08:08:38;;;;;;;7.97;2.67;;;14.90;99.90;;;;;;6340290;22;20002;-93
2021/08/09 08:11:07;;;;;;;5.97;2.20;;;15.00;99.90;;;;;;6335636;22;20034;-92
2021/08/09 08:13:33;;;;;;;4.10;2.28;;;15.10;99.90;;;;;;6312323;22;20034;-92
2021/08/09 08:15:58;;;;;;;7.43;2.28;;;15.20;99.90;;;;;;6312585;22;20007;-90
2021/08/09 08:18:24;;;;;;;6.75;2.80;;;15.40;99.90;;;;;;6304586;22;20014;-93
2021/08/09 08:20:50;;;;;;;3.95;2.00;;;15.40;99.90;;;;;;6311589;22;20010;-93
2021/08/09 08:23:16;;;;;;;4.60;1.92;;;15.50;99.90;;;;;;6313864;22;20006;-92
2021/08/09 08:25:41;;;;;;;5.32;1.90;;;15.50;99.90;;;;;;6312275;22;20334;-92
2021/08/09 08:28:07;;;;;;;5.00;2.30;;;15.50;99.90;;;;;;6313337;22;20006;-91
2021/08/09 08:30:33;;;;;;;7.13;2.00;;;15.60;99.90;;;;;;6317445;22;20009;-91
2021/08/09 08:32:59;;;;;;;3.88;2.20;;;15.60;99.90;;;;;;6315824;22;20090;-91
2021/08/09 08:35:24;;;;;;;7.22;2.85;;;15.60;99.90;;;;;;6329851;22;20002;-90
2021/08/09 08:37:50;;;;;;;5.53;2.33;;;15.60;99.90;;;;;;6326339;22;20018;-93
2021/08/09 08:40:17;;;;;;;5.45;1.80;;;15.70;99.90;;;;;;6331415;22;19979;-93
2021/08/09 08:42:47;;;;;;;8.30;2.55;;;15.70;99.90;;;;;;6308134;22;20496;-92
2021/08/09 08:45:18;;;;;;;4.68;2.47;;;15.80;99.90;;;;;;6312576;22;20011;-91
2021/08/09 08:47:44;;;;;;;4.45;1.85;;;15.80;99.90;;;;;;6311738;22;20007;-92
2021/08/09 08:50:11;;;;;;;3.97;1.95;;;15.80;99.90;;;;;;6308658;22;20007;-91
2021/08/09 08:52:42;;;;;;;3.58;2.00;;;15.80;99.90;;;;;;6309219;22;19999;-94
2021/08/09 08:55:08;;;;;;;3.08;2.00;;;15.90;99.90;;;;;;6312863;22;20060;-92
2021/08/09 08:57:33;;;;;;;9.52;2.75;;;15.90;99.90;;;;;;6312233;22;20102;-92
2021/08/09 08:59:59;;;;;;;6.35;2.20;;;15.90;99.90;;;;;;6307195;22;20041;-91
2021/08/09 09:02:33;;;;;;;3.97;2.35;;;15.90;99.90;;;;;;6314241;22;20059;-92
2021/08/09 09:05:14;;;;;;;3.05;2.20;;;15.90;99.90;;;;;;6313696;22;20086;-92
2021/08/09 09:07:58;;;;;;;6.50;2.35;;;16.00;99.90;;;;;;6313380;22;20003;-93
2021/08/09 09:10:28;;;;;;;3.22;2.15;;;16.00;99.90;;;;;;6313076;22;20067;-92
2021/08/09 09:13:14;;;;;;;5.25;2.22;;;16.20;99.90;;;;;;6313827;22;20011;-92
2021/08/09 09:16:03;;;;;;;3.67;2.28;;;16.30;99.90;;;;;;6313453;22;20060;-94
2021/08/09 09:18:59;;;;;;;3.97;2.25;;;16.40;99.90;;;;;;6312865;22;20006;-92
2021/08/09 09:21:32;;;;;;;4.00;2.15;;;16.60;99.90;;;;;;6306059;22;20003;-93
2021/08/09 09:24:20;;;;;;;5.57;2.00;;;16.70;99.90;;;;;;6312074;22;20003;-92
2021/08/09 09:26:55;;;;;;;4.28;2.10;;;16.70;99.90;;;;;;6311296;22;20572;-92
2021/08/09 09:29:20;;;;;;;8.25;2.30;;;16.80;99.90;;;;;;6310855;22;20030;-92
2021/08/09 09:31:48;;;;;;;3.63;1.65;;;16.90;99.90;;;;;;6311260;22;20072;-93
2021/08/09 09:34:18;;;;;;;4.55;1.60;;;16.90;99.90;;;;;;6310946;22;20015;-93
2021/08/09 09:36:53;;;;;;;2.22;1.33;;;16.90;99.90;;;;;;6311629;22;20014;-95
2021/08/09 09:39:38;;;;;;;4.07;1.65;;;16.80;99.90;;;;;;6311892;22;20544;-94
2021/08/09 09:42:32;;;;;;;6.13;1.80;;;16.70;99.90;;;;;;6311271;22;20021;-92
2021/08/09 09:45:16;;;;;;;2.85;1.60;;;16.60;99.90;;;;;;6337910;22;20017;-95
2021/08/09 09:47:42;;;;;;;4.47;1.85;;;16.60;99.90;;;;;;6311937;22;20007;-93
2021/08/09 09:50:23;;;;;;;4.22;1.73;;;16.60;99.90;;;;;;6311899;22;20002;-93
2021/08/09 09:52:49;;;;;;;2.83;1.77;;;16.70;99.90;;;;;;6312586;22;20434;-93
2021/08/09 09:55:15;;;;;;;6.95;2.28;;;16.80;99.90;;;;;;6311706;22;20033;-93
2021/08/09 09:57:43;;;;;;;4.20;2.05;;;16.90;99.90;;;;;;6311206;22;20068;-93
2021/08/09 10:00:14;;;;;;;4.28;1.95;;;17.00;99.90;;;;;;6311551;22;20029;-93
2021/08/09 10:02:47;;;;;;;7.35;2.40;;;17.10;99.90;;;;;;6311222;22;20025;-93
2021/08/09 10:05:15;;;;;;;3.75;1.88;;;17.20;99.90;;;;;;6312147;22;20124;-93
2021/08/09 10:07:45;;;;;;;5.13;2.50;;;17.30;99.90;;;;;;6312222;22;20003;-93
2021/08/09 10:10:10;;;;;;;6.57;2.25;;;17.40;99.90;;;;;;6311901;22;20074;-93
2021/08/09 10:12:38;;;;;;;4.85;2.28;;;17.60;99.90;;;;;;6311570;22;20092;-93
2021/08/09 10:18:37;;;;;;;3.83;1.98;;;18.10;99.90;;;;;;6336341;22;20421;-94
2021/08/09 10:21:04;;;;;;;7.43;2.10;;;18.40;99.90;;;;;;6312267;22;20033;-94
2021/08/09 10:23:57;;;;;;;7.43;2.17;;;18.50;99.90;;;;;;6312109;22;20042;-93
2021/08/09 10:26:32;;;;;;;4.85;1.83;;;18.50;99.90;;;;;;6307041;22;20367;-93
2021/08/09 10:29:12;;;;;;;4.38;1.77;;;18.60;99.90;;;;;;6312735;22;19998;-94
2021/08/09 10:31:40;;;;;;;5.20;1.88;;;18.80;99.90;;;;;;6311117;22;20015;-94
2021/08/09 10:34:27;;;;;;;6.03;2.17;;;19.00;99.90;;;;;;6311774;22;20010;-93
2021/08/09 10:37:11;;;;;;;7.03;2.08;;;19.10;99.90;;;;;;6311033;22;20029;-92
2021/08/09 10:39:49;;;;;;;3.85;2.00;;;19.10;99.90;;;;;;6311728;22;19999;-93
2021/08/09 10:42:37;;;;;;;3.03;2.03;;;19.10;99.90;;;;;;6315517;22;20010;-93
2021/08/09 10:45:05;;;;;;;5.57;2.45;;;19.00;99.40;;;;;;6317552;22;20366;-92
2021/08/09 10:47:50;;;;;;;6.50;2.75;;;19.00;98.90;;;;;;6317203;22;20034;-91
2021/08/09 10:50:31;;;;;;;6.55;2.03;;;19.10;98.60;;;;;;6317017;22;20014;-93
2021/08/09 10:52:58;;;;;;;11.75;2.05;;;19.20;97.60;;;;;;6311850;22;20009;-94
2021/08/09 10:55:33;;;;;;;6.72;2.20;;;19.20;96.90;;;;;;6311387;22;20009;-93
2021/08/09 10:58:02;;;;;;;5.45;1.95;;;19.20;96.60;;;;;;6311612;22;20075;-91
2021/08/09 11:00:48;;;;;;;8.80;2.35;;;19.10;96.80;;;;;;6311547;22;20006;-93
2021/08/09 11:03:20;;;;;;;6.65;2.67;;;19.20;97.30;;;;;;6295592;22;20155;-92
2021/08/09 11:05:48;;;;;;;6.57;1.75;;;19.40;97.60;;;;;;6311610;22;20034;-93
2021/08/09 11:08:20;;;;;;;2.50;1.67;;;19.50;96.50;;;;;;6311986;22;20464;-93
2021/08/09 11:10:55;;;;;;;5.40;1.83;;;19.50;95.30;;;;;;6311935;22;20369;-94
2021/08/09 11:13:22;;;;;;;3.72;1.58;;;19.30;94.50;;;;;;6312230;22;20002;-92
2021/08/09 11:15:58;;;;;;;4.45;2.00;;;19.30;94.40;;;;;;6310852;22;20033;-93
2021/08/09 11:18:25;;;;;;;6.05;1.80;;;19.30;94.10;;;;;;6311504;22;20007;-93
2021/08/09 11:21:09;;;;;;;3.35;1.48;;;19.30;94.10;;;;;;6316683;22;20026;-92
2021/08/09 11:23:45;;;;;;;4.95;1.70;;;19.30;93.60;;;;;;6316359;22;20014;-92
2021/08/09 11:26:28;;;;;;;4.75;1.90;;;19.40;94.10;;;;;;6314590;22;19995;-93
2021/08/09 11:29:02;;;;;;;3.13;2.03;;;19.40;93.90;;;;;;6318031;22;20009;-94
2021/08/09 11:31:42;;;;;;;3.33;1.73;;;19.50;93.50;;;;;;6318179;22;20102;-94
2021/08/09 11:34:08;;;;;;;3.13;1.77;;;19.50;92.90;;;;;;6316356;22;20055;-94
2021/08/09 11:36:33;;;;;;;7.28;1.98;;;19.50;92.90;;;;;;6316538;22;20015;-93
2021/08/09 11:39:01;;;;;;;5.50;1.63;;;19.40;92.30;;;;;;6314034;22;20007;-93
2021/08/09 11:41:29;;;;;;;3.45;1.58;;;19.50;92.30;;;;;;6312009;22;20002;-92
2021/08/09 11:44:10;;;;;;;6.97;1.92;;;19.50;92.50;;;;;;6311699;22;20053;-93
2021/08/09 11:46:46;;;;;;;;;;;19.70;92.30;;;;;;6313073;22;20009;-93
2021/08/09 11:49:12;;;;;;;4.63;1.75;;;19.90;92.20;;;;;;6311892;22;19909;-93
2021/08/09 11:51:37;;;;;;;5.22;2.05;;;20.00;91.00;;;;;;6312023;22;20011;-93
2021/08/09 11:54:03;;;;;;;2.78;1.83;;;20.00;90.60;;;;;;6311528;22;20007;-90
2021/08/09 11:56:38;;;;;;;4.95;1.90;;;20.00;90.20;;;;;;6312070;22;20006;-96
2021/08/09 11:59:12;;;;;;;4.50;1.92;;;20.10;88.20;;;;;;6312725;22;20010;-94
2021/08/09 12:01:48;;;;;;;4.03;1.70;;;20.10;88.50;;;;;;6312402;22;19995;-94
2021/08/09 12:04:16;;;;;;;3.50;1.75;;;20.10;87.90;;;;;;6312050;22;20045;-92
2021/08/09 12:06:57;;;;;;;2.97;1.58;;;20.40;88.20;;;;;;6311754;22;20003;-92
2021/08/09 12:09:38;;;;;;;1.88;1.30;;;20.70;87.90;;;;;;6311555;22;20007;-93
2021/08/09 12:12:08;;;;;;;2.90;1.45;;;21.10;85.50;;;;;;6311015;22;20430;-94
2021/08/09 12:14:35;;;;;;;4.32;1.45;;;21.30;83.60;;;;;;6311120;22;20094;-94
2021/08/09 12:17:18;;;;;;;3.15;1.63;;;21.40;82.30;;;;;;6309425;22;20060;-94
2021/08/09 12:19:45;;;;;;;3.17;1.70;;;21.40;79.70;;;;;;6311321;22;20017;-94
2021/08/09 12:22:18;;;;;;;2.53;1.40;;;21.20;78.50;;;;;;6310718;22;20040;-92
2021/08/09 12:25:07;;;;;;;3.13;1.80;;;21.30;79.30;;;;;;6311459;22;20152;-94
2021/08/09 12:27:34;;;;;;;3.30;1.70;;;21.30;79.50;;;;;;6311477;22;20044;-94
2021/08/09 12:30:05;;;;;;;8.07;2.10;;;21.30;79.60;;;;;;6312961;22;20007;-94
2021/08/09 12:32:31;;;;;;;4.85;1.70;;;21.30;79.70;;;;;;6313695;22;20185;-94
2021/08/09 12:34:58;;;;;;;1.77;1.42;;;21.40;78.80;;;;;;6314021;22;19999;-94
2021/08/09 12:37:24;;;;;;;6.68;1.63;;;21.30;79.00;;;;;;6314022;22;20023;-95
2021/08/09 12:39:50;;;;;;;4.70;1.75;;;21.30;79.00;;;;;;6313688;22;20022;-93
2021/08/09 12:42:22;;;;;;;2.80;2.00;;;21.20;78.70;;;;;;6315823;22;20007;-93
2021/08/09 12:44:50;;;;;;;6.30;1.90;;;21.00;79.10;;;;;;6314909;22;20073;-92
2021/08/09 12:47:16;;;;;;;3.55;1.50;;;20.90;79.70;;;;;;6315082;22;20034;-94
2021/08/09 12:49:43;;;;;;;1.65;1.40;;;20.80;80.20;;;;;;6315109;22;20007;-94
2021/08/09 12:52:09;;;;;;;3.33;1.40;;;20.70;79.70;;;;;;6315079;22;20063;-96
2021/08/09 12:54:35;;;;;;;3.45;1.42;;;20.60;77.60;;;;;;6314573;22;20029;-93
2021/08/09 12:57:01;;;;;;;4.78;1.40;;;20.70;77.40;;;;;;6317673;22;20011;-93
2021/08/09 12:59:27;;;;;;;5.63;1.45;;;21.00;77.90;;;;;;6319753;22;20081;-95
2021/08/09 13:01:56;;;;;;;1.45;1.00;;;21.40;77.70;;;;;;6325847;22;20013;-94
2021/08/09 13:04:23;;;;;;;1.90;1.20;;;21.80;76.50;;;;;;6336714;22;19986;-95
2021/08/09 13:06:48;;;;;;;2.15;1.42;;;22.00;73.80;;;;;;6334627;22;19991;-96
2021/08/09 13:09:14;;;;;;;3.65;1.08;;;22.30;72.30;;;;;;6331598;22;20018;-92
2021/08/09 13:11:40;;;;;;;4.10;1.30;;;22.60;72.10;;;;;;6324921;22;20448;-94
2021/08/09 13:14:06;;;;;;;3.25;1.40;;;22.60;70.70;;;;;;6312841;22;20010;-94
2021/08/09 13:16:35;;;;;;;3.55;1.30;;;22.80;71.40;;;;;;6312979;22;20101;-94
2021/08/09 13:19:01;;;;;;;3.35;1.40;;;22.90;70.80;;;;;;6312909;22;20003;-94
2021/08/09 13:21:28;;;;;;;2.42;1.10;;;22.70;70.20;;;;;;6313149;22;20457;-94
2021/08/09 13:23:53;;;;;;;2.45;1.10;;;22.50;70.60;;;;;;6313992;22;20007;-94
2021/08/09 13:26:19;;;;;;;4.18;1.30;;;22.30;71.00;;;;;;6313288;22;20288;-96
2021/08/09 13:28:45;;;;;;;1.83;1.13;;;21.90;70.70;;;;;;6313438;22;20044;-95
2021/08/09 13:31:10;;;;;;;2.00;1.20;;;21.60;71.90;;;;;;6313250;22;20102;-95
2021/08/09 13:33:36;;;;;;;4.85;1.40;;;21.50;73.40;;;;;;6313460;22;20029;-95
2021/08/09 13:36:04;;;;;;;2.20;1.30;;;21.40;74.30;;;;;;6314161;22;20007;-95
2021/08/09 13:38:33;;;;;;;3.20;1.75;;;21.50;74.20;;;;;;6313143;22;20003;-96
2021/08/09 13:40:59;;;;;;;2.70;1.30;;;21.60;73.60;;;;;;6340490;22;19999;-95
2021/08/09 13:43:25;;;;;;;1.42;1.05;;;21.80;73.30;;;;;;6313655;22;20007;-95
2021/08/09 13:45:51;;;;;;;4.05;1.50;;;22.10;72.90;;;;;;6313296;22;20002;-94
2021/08/09 13:48:17;;;;;;;3.75;1.60;;;22.40;72.00;;;;;;6312217;22;20026;-94
2021/08/09 13:50:43;;;;;;;1.40;1.30;;;22.60;71.70;;;;;;6313482;22;20453;-95
2021/08/09 13:53:09;;;;;;;3.58;1.40;;;22.70;70.20;;;;;;6313233;22;20479;-95
2021/08/09 13:55:34;;;;;;;3.55;1.50;;;22.40;69.80;;;;;;6312325;22;20065;-94
2021/08/09 13:58:00;;;;;;;1.73;1.25;;;22.20;70.20;;;;;;6312645;22;20037;-96
2021/08/09 14:00:26;;;;;;;5.85;1.50;;;22.00;70.60;;;;;;6312831;22;19999;-92
2021/08/09 14:02:51;;;;;;;2.33;1.10;;;21.70;71.40;;;;;;6312240;22;20052;-94
2021/08/09 14:05:17;;;;;;;4.03;1.52;;;21.50;71.80;;;;;;6312162;22;20034;-93
2021/08/09 14:07:43;;;;;;;2.20;1.55;;;21.40;72.00;;;;;;6312483;22;20005;-91
2021/08/09 14:10:10;;;;;;;3.45;1.40;;;21.40;72.50;;;;;;6311832;22;19995;-95
2021/08/09 14:12:41;;;;;;;2.53;1.50;;;21.40;72.40;;;;;;6312031;22;20006;-93
2021/08/09 14:15:07;;;;;;;2.08;1.25;;;21.40;72.10;;;;;;6311887;22;19998;-93
2021/08/09 14:17:33;;;;;;;3.50;1.30;;;21.60;72.10;;;;;;6312245;22;20022;-93
2021/08/09 14:19:59;;;;;;;4.10;1.48;;;22.00;73.10;;;;;;6311635;22;20002;-95
2021/08/09 14:22:25;;;;;;;2.85;1.13;;;22.50;71.30;;;;;;6311616;22;20343;-95
2021/08/09 14:24:51;;;;;;;1.67;1.15;;;22.80;69.00;;;;;;6311669;22;20442;-94
2021/08/09 14:27:17;;;;;;;3.55;1.42;;;22.90;67.20;;;;;;6312443;22;20052;-96
2021/08/09 14:29:48;;;;;;;1.52;1.35;;;22.80;67.70;;;;;;6311920;22;19998;-93
2021/08/09 14:32:14;;;;;;;1.42;1.00;;;22.90;68.00;;;;;;6311726;22;20019;-94
2021/08/09 14:34:40;;;;;;;2.25;1.45;;;23.10;67.60;;;;;;6312344;22;20007;-94
2021/08/09 14:37:06;;;;;;;2.90;1.55;;;23.10;67.50;;;;;;6312944;22;20488;-94
2021/08/09 14:39:31;;;;;;;3.03;1.10;;;23.10;67.30;;;;;;6313224;22;20445;-95
2021/08/09 14:41:57;;;;;;;3.85;1.42;;;23.00;66.80;;;;;;6312030;22;20433;-95
2021/08/09 14:44:23;;;;;;;2.35;1.20;;;22.90;66.80;;;;;;6312717;22;20003;-96
2021/08/09 14:46:49;;;;;;;2.00;1.30;;;22.90;67.10;;;;;;6312582;22;20007;-93
2021/08/09 14:49:14;;;;;;;2.40;1.20;;;22.80;67.00;;;;;;6312224;22;20007;-94
2021/08/09 14:51:40;;;;;;;1.88;1.20;;;22.80;67.10;;;;;;6312458;22;20057;-94
2021/08/09 14:54:06;;;;;;;2.65;1.50;;;23.10;67.60;;;;;;6311487;22;20013;-94
2021/08/09 14:56:32;;;;;;;7.00;1.48;;;23.40;67.30;;;;;;6312072;22;20038;-93
2021/08/09 14:58:58;;;;;;;2.53;1.40;;;23.60;65.40;;;;;;6312683;22;20436;-96
2021/08/09 15:01:24;;;;;;;2.80;1.38;;;23.70;65.00;;;;;;6313150;22;20144;-93
2021/08/09 15:03:49;;;;;;;4.25;1.70;;;23.90;64.80;;;;;;6312678;22;20086;-93
2021/08/09 15:06:15;;;;;;;2.38;1.63;;;24.00;63.40;;;;;;6314524;22;20006;-96
2021/08/09 15:08:42;;;;;;;2.35;1.67;;;24.00;62.90;;;;;;6341395;22;20007;-93
2021/08/09 15:11:08;;;;;;;1.75;1.27;;;23.80;62.70;;;;;;6312756;22;20514;-94
2021/08/09 15:13:34;;;;;;;3.80;1.58;;;23.80;63.40;;;;;;6312570;22;20010;-94
2021/08/09 15:16:00;;;;;;;2.83;1.30;;;23.70;63.70;;;;;;6315143;22;20013;-94
2021/08/09 15:18:25;;;;;;;4.70;1.30;;;23.70;63.90;;;;;;6316665;22;20022;-94
2021/08/09 15:20:51;;;;;;;4.05;1.70;;;23.60;63.70;;;;;;6315222;22;20042;-96
2021/08/09 15:23:17;;;;;;;3.95;1.88;;;23.50;63.80;;;;;;6321031;22;20068;-96
2021/08/09 15:25:43;;;;;;;1.83;1.33;;;23.50;63.90;;;;;;6324910;22;19999;-96
2021/08/09 15:28:12;;;;;;;2.25;1.63;;;23.40;63.20;;;;;;6324491;22;20002;-91
2021/08/09 15:30:38;;;;;;;2.88;1.65;;;23.40;63.90;;;;;;6323459;22;20013;-95
2021/08/09 15:33:09;;;;;;;3.78;1.60;;;23.20;64.00;;;;;;6322586;22;20007;-94
2021/08/09 15:35:35;;;;;;;2.30;1.75;;;23.20;64.10;;;;;;6324384;22;20002;-95
2021/08/09 15:38:00;;;;;;;3.17;1.95;;;23.10;64.50;;;;;;6320293;22;20403;-96
2021/08/09 15:40:26;;;;;;;2.65;1.95;;;23.20;64.80;;;;;;6314278;22;19998;-96
2021/08/09 15:42:52;;;;;;;4.00;1.60;;;23.30;64.70;;;;;;6314972;22;20003;-96
2021/08/09 15:45:18;;;;;;;3.00;1.95;;;23.30;64.10;;;;;;6315268;22;20003;-96
2021/08/09 15:47:44;;;;;;;5.40;1.98;;;23.30;64.40;;;;;;6315538;22;20319;-96
2021/08/09 15:50:12;;;;;;;2.95;1.48;;;23.20;64.60;;;;;;6314860;22;20442;-95
2021/08/09 15:52:39;;;;;;;2.67;1.70;;;23.20;64.80;;;;;;6314394;22;20009;-96
2021/08/09 15:55:05;;;;;;;2.78;1.70;;;23.10;65.10;;;;;;6314342;22;20003;-96
2021/08/09 15:57:31;;;;;;;4.50;2.10;;;23.10;65.40;;;;;;6313703;22;20399;-96
2021/08/09 15:59:57;;;;;;;3.97;2.05;;;22.90;65.70;;;;;;6315359;22;19998;-96
2021/08/09 16:17:15;;;;;;;3.80;2.30;;;21.20;71.80;;;;;;6233937;22;20228;-92
2021/08/09 16:19:41;;;;;;;4.60;2.17;;;20.90;72.80;;;;;;6190816;23;20028;-96
2021/08/09 16:22:08;;;;;;;2.83;1.98;;;20.70;73.50;;;;;;6190275;23;20001;-94
2021/08/09 16:34:51;;;;;;;7.47;1.63;;;20.80;77.10;;;;;;6324428;22;20007;-96
2021/08/09 16:37:20;;;;;;;3.38;1.73;;;20.90;77.00;;;;;;6327233;22;20023;-95
2021/08/09 16:39:46;;;;;;;4.78;2.10;;;20.80;76.10;;;;;;6288366;22;20004;-95
2021/08/09 16:42:14;;;;;;;1.75;1.50;;;20.60;76.40;;;;;;6289987;22;20010;-95
2021/08/09 16:44:40;;;;;;;3.53;1.45;;;20.60;77.20;;;;;;6287663;22;20005;-95
2021/08/09 16:47:09;;;;;;;4.32;1.55;;;20.60;77.10;;;;;;6260700;22;20039;-96
2021/08/09 16:49:34;;;;;;;3.60;1.30;;;20.50;77.10;;;;;;6285668;22;19995;-95
2021/08/09 16:52:00;;;;;;;2.72;1.67;;;20.50;77.40;;;;;;6285295;22;20014;-95
2021/08/09 16:54:26;;;;;;;2.85;1.50;;;20.50;77.40;;;;;;6285052;22;20008;-96
2021/08/09 16:56:52;;;;;;;2.13;1.50;;;20.40;77.00;;;;;;6284256;22;20419;-96
2021/08/09 16:59:18;;;;;;;3.15;1.40;;;20.30;76.70;;;;;;6283589;22;20071;-96
2021/08/09 17:01:44;;;;;;;3.25;1.85;;;20.20;76.60;;;;;;6286021;22;20003;-95
2021/08/09 17:05:18;;;;;;;3.20;1.50;;;20.20;76.80;;;;;;6292896;22;20003;-95
2021/08/09 17:45:18;;;;;;;7.15;2.40;;;17.90;93.00;;;;;;6329992;22;20109;-94